sensor_id;sensor_type;location;lat;lon;timestamp;temperature;humidity
11840;DHT22;5979;50.800;4.904;2024-03-02T00:02:06;7.80;99.90
11840;DHT22;5979;50.800;4.904;2024-03-02T00:04:32;7.90;99.90
11840;DHT22;5979;50.800;4.904;2024-03-02T00:06:57;7.90;99.90
11840;DHT22;5979;50.800;4.904;2024-03-02T00:09:23;7.90;99.90
11840;DHT22;5979;50.800;4.904;2024-03-02T00:11:49;7.90;99.90
11840;DHT22;5979;50.800;4.904;2024-03-02T00:14:16;8.00;99.90
11840;DHT22;5979;50.800;4.904;2024-03-02T00:16:42;8.00;99.90
11840;DHT22;5979;50.800;4.904;2024-03-02T00:19:09;8.10;99.90
11840;DHT22;5979;50.800;4.904;2024-03-02T00:21:38;8.00;99.90
11840;DHT22;5979;50.800;4.904;2024-03-02T00:24:31;8.00;99.90
11840;DHT22;5979;50.800;4.904;2024-03-02T00:26:57;8.00;99.90
11840;DHT22;5979;50.800;4.904;2024-03-02T00:29:22;8.00;99.90
11840;DHT22;5979;50.800;4.904;2024-03-02T00:31:48;8.00;99.90
11840;DHT22;5979;50.800;4.904;2024-03-02T00:34:14;8.00;99.90
11840;DHT22;5979;50.800;4.904;2024-03-02T00:36:41;8.00;99.90
11840;DHT22;5979;50.800;4.904;2024-03-02T00:39:07;7.90;99.90
11840;DHT22;5979;50.800;4.904;2024-03-02T00:41:33;7.90;99.90
11840;DHT22;5979;50.800;4.904;2024-03-02T00:44:03;7.80;99.90
11840;DHT22;5979;50.800;4.904;2024-03-02T00:46:33;7.80;99.90
11840;DHT22;5979;50.800;4.904;2024-03-02T00:49:00;7.70;99.90
11840;DHT22;5979;50.800;4.904;2024-03-02T00:51:29;7.70;99.90
11840;DHT22;5979;50.800;4.904;2024-03-02T00:54:00;7.60;99.90
11840;DHT22;5979;50.800;4.904;2024-03-02T00:56:26;7.60;99.90
11840;DHT22;5979;50.800;4.904;2024-03-02T00:58:52;7.60;99.90
11840;DHT22;5979;50.800;4.904;2024-03-02T01:01:18;7.60;99.90
11840;DHT22;5979;50.800;4.904;2024-03-02T01:03:45;7.60;99.90
11840;DHT22;5979;50.800;4.904;2024-03-02T01:06:11;7.60;99.90
11840;DHT22;5979;50.800;4.904;2024-03-02T01:11:04;7.60;99.90
11840;DHT22;5979;50.800;4.904;2024-03-02T01:13:31;7.60;99.90
11840;DHT22;5979;50.800;4.904;2024-03-02T01:15:57;7.60;99.90
11840;DHT22;5979;50.800;4.904;2024-03-02T01:18:22;7.60;99.90
11840;DHT22;5979;50.800;4.904;2024-03-02T01:20:49;7.60;99.90
11840;DHT22;5979;50.800;4.904;2024-03-02T01:23:21;7.60;99.90
11840;DHT22;5979;50.800;4.904;2024-03-02T01:25:47;7.70;99.90
11840;DHT22;5979;50.800;4.904;2024-03-02T01:28:13;7.60;99.90
11840;DHT22;5979;50.800;4.904;2024-03-02T01:30:39;7.60;99.90
11840;DHT22;5979;50.800;4.904;2024-03-02T01:33:05;7.60;99.90
11840;DHT22;5979;50.800;4.904;2024-03-02T01:35:31;7.70;99.90
11840;DHT22;5979;50.800;4.904;2024-03-02T01:37:57;7.60;99.90
11840;DHT22;5979;50.800;4.904;2024-03-02T01:40:23;7.60;99.90
11840;DHT22;5979;50.800;4.904;2024-03-02T01:42:52;7.60;99.90
11840;DHT22;5979;50.800;4.904;2024-03-02T01:45:19;7.70;99.90
11840;DHT22;5979;50.800;4.904;2024-03-02T01:47:45;7.60;99.90
11840;DHT22;5979;50.800;4.904;2024-03-02T01:50:13;7.60;99.90
11840;DHT22;5979;50.800;4.904;2024-03-02T01:52:40;7.70;99.90
11840;DHT22;5979;50.800;4.904;2024-03-02T01:55:06;7.60;99.90
11840;DHT22;5979;50.800;4.904;2024-03-02T01:57:33;7.60;99.90
11840;DHT22;5979;50.800;4.904;2024-03-02T02:00:00;7.50;99.90
11840;DHT22;5979;50.800;4.904;2024-03-02T02:02:26;7.50;99.90
11840;DHT22;5979;50.800;4.904;2024-03-02T02:04:52;7.50;99.90
11840;DHT22;5979;50.800;4.904;2024-03-02T02:07:17;7.50;99.90
11840;DHT22;5979;50.800;4.904;2024-03-02T02:09:44;7.40;99.90
11840;DHT22;5979;50.800;4.904;2024-03-02T02:12:10;7.40;99.90
11840;DHT22;5979;50.800;4.904;2024-03-02T02:14:36;7.40;99.90
11840;DHT22;5979;50.800;4.904;2024-03-02T02:17:02;7.40;99.90
11840;DHT22;5979;50.800;4.904;2024-03-02T02:19:27;7.40;99.90
11840;DHT22;5979;50.800;4.904;2024-03-02T02:21:54;7.40;99.90
11840;DHT22;5979;50.800;4.904;2024-03-02T02:24:19;7.40;99.90
11840;DHT22;5979;50.800;4.904;2024-03-02T02:26:45;7.40;99.90
11840;DHT22;5979;50.800;4.904;2024-03-02T02:29:11;7.40;99.90
11840;DHT22;5979;50.800;4.904;2024-03-02T02:31:37;7.40;99.90
11840;DHT22;5979;50.800;4.904;2024-03-02T02:34:04;7.40;99.90
11840;DHT22;5979;50.800;4.904;2024-03-02T02:36:30;7.40;99.90
11840;DHT22;5979;50.800;4.904;2024-03-02T02:38:56;7.40;99.90
11840;DHT22;5979;50.800;4.904;2024-03-02T02:41:22;7.40;99.90
11840;DHT22;5979;50.800;4.904;2024-03-02T02:43:47;7.40;99.90
11840;DHT22;5979;50.800;4.904;2024-03-02T02:46:13;7.30;99.90
11840;DHT22;5979;50.800;4.904;2024-03-02T02:48:39;7.40;99.90
11840;DHT22;5979;50.800;4.904;2024-03-02T02:51:04;7.30;99.90
11840;DHT22;5979;50.800;4.904;2024-03-02T02:53:30;7.30;99.90
11840;DHT22;5979;50.800;4.904;2024-03-02T02:55:55;7.30;99.90
11840;DHT22;5979;50.800;4.904;2024-03-02T02:58:21;7.30;99.90
11840;DHT22;5979;50.800;4.904;2024-03-02T03:00:47;7.30;99.90
11840;DHT22;5979;50.800;4.904;2024-03-02T03:03:12;7.30;99.90
11840;DHT22;5979;50.800;4.904;2024-03-02T03:05:38;7.30;99.90
11840;DHT22;5979;50.800;4.904;2024-03-02T03:08:03;7.30;99.90
11840;DHT22;5979;50.800;4.904;2024-03-02T03:10:29;7.30;99.90
11840;DHT22;5979;50.800;4.904;2024-03-02T03:12:55;7.40;99.90
11840;DHT22;5979;50.800;4.904;2024-03-02T03:15:21;7.40;99.90
11840;DHT22;5979;50.800;4.904;2024-03-02T03:17:47;7.40;99.90
11840;DHT22;5979;50.800;4.904;2024-03-02T03:20:13;7.40;99.90
11840;DHT22;5979;50.800;4.904;2024-03-02T03:22:40;7.40;99.90
11840;DHT22;5979;50.800;4.904;2024-03-02T03:25:06;7.40;99.90
11840;DHT22;5979;50.800;4.904;2024-03-02T03:27:34;7.40;99.90
11840;DHT22;5979;50.800;4.904;2024-03-02T03:30:00;7.30;99.90
11840;DHT22;5979;50.800;4.904;2024-03-02T03:32:26;7.40;99.90
11840;DHT22;5979;50.800;4.904;2024-03-02T03:34:51;7.40;99.90
11840;DHT22;5979;50.800;4.904;2024-03-02T03:37:17;7.30;99.90
11840;DHT22;5979;50.800;4.904;2024-03-02T03:39:42;7.30;99.90
11840;DHT22;5979;50.800;4.904;2024-03-02T03:42:08;7.20;99.90
11840;DHT22;5979;50.800;4.904;2024-03-02T03:44:34;7.20;99.90
11840;DHT22;5979;50.800;4.904;2024-03-02T03:47:00;7.20;99.90
11840;DHT22;5979;50.800;4.904;2024-03-02T03:49:27;7.10;99.90
11840;DHT22;5979;50.800;4.904;2024-03-02T03:51:53;7.10;99.90
11840;DHT22;5979;50.800;4.904;2024-03-02T03:54:18;7.10;99.90
11840;DHT22;5979;50.800;4.904;2024-03-02T03:56:44;7.10;99.90
11840;DHT22;5979;50.800;4.904;2024-03-02T03:59:10;7.00;99.90
11840;DHT22;5979;50.800;4.904;2024-03-02T04:01:35;7.10;99.90
11840;DHT22;5979;50.800;4.904;2024-03-02T04:04:01;7.10;99.90
11840;DHT22;5979;50.800;4.904;2024-03-02T04:06:29;7.10;99.90
11840;DHT22;5979;50.800;4.904;2024-03-02T04:08:55;7.20;99.90
11840;DHT22;5979;50.800;4.904;2024-03-02T04:11:20;7.20;99.90
11840;DHT22;5979;50.800;4.904;2024-03-02T04:13:46;7.20;99.90
11840;DHT22;5979;50.800;4.904;2024-03-02T04:16:12;7.30;99.90
11840;DHT22;5979;50.800;4.904;2024-03-02T04:18:37;7.30;99.90
11840;DHT22;5979;50.800;4.904;2024-03-02T04:21:05;7.20;99.90
11840;DHT22;5979;50.800;4.904;2024-03-02T04:23:30;7.30;99.90
11840;DHT22;5979;50.800;4.904;2024-03-02T04:25:56;7.30;99.90
11840;DHT22;5979;50.800;4.904;2024-03-02T04:28:21;7.30;99.90
11840;DHT22;5979;50.800;4.904;2024-03-02T04:30:47;7.20;99.90
11840;DHT22;5979;50.800;4.904;2024-03-02T04:33:13;7.20;99.90
11840;DHT22;5979;50.800;4.904;2024-03-02T04:35:39;7.20;99.90
11840;DHT22;5979;50.800;4.904;2024-03-02T04:38:04;7.20;99.90
11840;DHT22;5979;50.800;4.904;2024-03-02T04:40:30;7.20;99.90
11840;DHT22;5979;50.800;4.904;2024-03-02T04:42:55;7.20;99.90
11840;DHT22;5979;50.800;4.904;2024-03-02T04:45:21;7.10;99.90
11840;DHT22;5979;50.800;4.904;2024-03-02T04:47:47;7.10;99.90
11840;DHT22;5979;50.800;4.904;2024-03-02T04:50:12;7.10;99.90
11840;DHT22;5979;50.800;4.904;2024-03-02T04:52:38;7.00;99.90
11840;DHT22;5979;50.800;4.904;2024-03-02T04:55:04;7.00;99.90
11840;DHT22;5979;50.800;4.904;2024-03-02T04:57:55;6.90;99.90
11840;DHT22;5979;50.800;4.904;2024-03-02T05:00:21;6.80;99.90
11840;DHT22;5979;50.800;4.904;2024-03-02T05:02:47;6.80;99.90
11840;DHT22;5979;50.800;4.904;2024-03-02T05:05:13;6.80;99.90
11840;DHT22;5979;50.800;4.904;2024-03-02T05:07:40;6.80;99.90
11840;DHT22;5979;50.800;4.904;2024-03-02T05:10:08;6.70;99.90
11840;DHT22;5979;50.800;4.904;2024-03-02T05:12:34;6.70;99.90
11840;DHT22;5979;50.800;4.904;2024-03-02T05:15:13;6.70;99.90
11840;DHT22;5979;50.800;4.904;2024-03-02T05:17:40;6.60;99.90
11840;DHT22;5979;50.800;4.904;2024-03-02T05:20:07;6.60;99.90
11840;DHT22;5979;50.800;4.904;2024-03-02T05:22:36;6.60;99.90
11840;DHT22;5979;50.800;4.904;2024-03-02T05:25:05;6.60;99.90
11840;DHT22;5979;50.800;4.904;2024-03-02T05:27:31;6.60;99.90
11840;DHT22;5979;50.800;4.904;2024-03-02T05:29:58;6.60;99.90
11840;DHT22;5979;50.800;4.904;2024-03-02T05:32:24;6.60;99.90
11840;DHT22;5979;50.800;4.904;2024-03-02T05:34:50;6.50;99.90
11840;DHT22;5979;50.800;4.904;2024-03-02T05:37:18;6.50;99.90
11840;DHT22;5979;50.800;4.904;2024-03-02T05:39:45;6.50;99.90
11840;DHT22;5979;50.800;4.904;2024-03-02T05:42:11;6.40;99.90
11840;DHT22;5979;50.800;4.904;2024-03-02T05:44:37;6.40;99.90
11840;DHT22;5979;50.800;4.904;2024-03-02T05:47:03;6.40;99.90
11840;DHT22;5979;50.800;4.904;2024-03-02T05:49:29;6.40;99.90
11840;DHT22;5979;50.800;4.904;2024-03-02T05:51:55;6.40;99.90
11840;DHT22;5979;50.800;4.904;2024-03-02T05:54:21;6.40;99.90
11840;DHT22;5979;50.800;4.904;2024-03-02T05:56:46;6.40;99.90
11840;DHT22;5979;50.800;4.904;2024-03-02T05:59:12;6.40;99.90
11840;DHT22;5979;50.800;4.904;2024-03-02T06:01:47;6.40;99.90
11840;DHT22;5979;50.800;4.904;2024-03-02T06:04:13;6.40;99.90
11840;DHT22;5979;50.800;4.904;2024-03-02T06:06:40;6.40;99.90
11840;DHT22;5979;50.800;4.904;2024-03-02T06:09:06;6.40;99.90
11840;DHT22;5979;50.800;4.904;2024-03-02T06:11:40;6.30;99.90
11840;DHT22;5979;50.800;4.904;2024-03-02T06:14:09;6.30;99.90
11840;DHT22;5979;50.800;4.904;2024-03-02T06:16:35;6.10;99.90
11840;DHT22;5979;50.800;4.904;2024-03-02T06:19:01;6.00;99.90
11840;DHT22;5979;50.800;4.904;2024-03-02T06:21:27;5.80;99.90
11840;DHT22;5979;50.800;4.904;2024-03-02T06:23:53;5.70;99.90
11840;DHT22;5979;50.800;4.904;2024-03-02T06:26:19;5.60;99.90
11840;DHT22;5979;50.800;4.904;2024-03-02T06:28:45;5.60;99.90
11840;DHT22;5979;50.800;4.904;2024-03-02T06:31:11;5.50;99.90
11840;DHT22;5979;50.800;4.904;2024-03-02T06:33:37;5.50;99.90
11840;DHT22;5979;50.800;4.904;2024-03-02T06:36:03;5.50;99.90
11840;DHT22;5979;50.800;4.904;2024-03-02T06:38:29;5.40;99.90
11840;DHT22;5979;50.800;4.904;2024-03-02T06:40:55;5.40;99.90
11840;DHT22;5979;50.800;4.904;2024-03-02T06:43:21;5.40;99.90
11840;DHT22;5979;50.800;4.904;2024-03-02T06:45:52;5.40;99.90
11840;DHT22;5979;50.800;4.904;2024-03-02T06:48:19;5.50;99.90
11840;DHT22;5979;50.800;4.904;2024-03-02T06:50:49;5.50;99.90
11840;DHT22;5979;50.800;4.904;2024-03-02T06:53:15;5.50;99.90
11840;DHT22;5979;50.800;4.904;2024-03-02T06:55:45;5.60;99.90
11840;DHT22;5979;50.800;4.904;2024-03-02T06:58:14;5.70;99.90
11840;DHT22;5979;50.800;4.904;2024-03-02T07:00:43;5.60;99.90
11840;DHT22;5979;50.800;4.904;2024-03-02T07:03:11;5.60;99.90
11840;DHT22;5979;50.800;4.904;2024-03-02T07:05:37;5.60;99.90
11840;DHT22;5979;50.800;4.904;2024-03-02T07:08:03;5.60;99.90
11840;DHT22;5979;50.800;4.904;2024-03-02T07:10:30;5.60;99.90
11840;DHT22;5979;50.800;4.904;2024-03-02T07:12:56;5.60;99.90
11840;DHT22;5979;50.800;4.904;2024-03-02T07:15:21;5.80;99.90
11840;DHT22;5979;50.800;4.904;2024-03-02T07:17:53;5.80;99.90
11840;DHT22;5979;50.800;4.904;2024-03-02T07:20:18;5.80;99.90
11840;DHT22;5979;50.800;4.904;2024-03-02T07:22:44;5.90;99.90
11840;DHT22;5979;50.800;4.904;2024-03-02T07:25:10;6.10;99.90
11840;DHT22;5979;50.800;4.904;2024-03-02T07:27:35;6.20;99.90
11840;DHT22;5979;50.800;4.904;2024-03-02T07:30:03;6.50;99.90
11840;DHT22;5979;50.800;4.904;2024-03-02T07:32:29;6.60;99.90
11840;DHT22;5979;50.800;4.904;2024-03-02T07:34:54;6.90;99.90
11840;DHT22;5979;50.800;4.904;2024-03-02T07:37:21;7.00;99.90
11840;DHT22;5979;50.800;4.904;2024-03-02T07:39:47;7.20;99.90
11840;DHT22;5979;50.800;4.904;2024-03-02T07:42:13;7.30;99.90
11840;DHT22;5979;50.800;4.904;2024-03-02T07:44:39;7.40;99.90
11840;DHT22;5979;50.800;4.904;2024-03-02T07:47:04;7.40;99.90
11840;DHT22;5979;50.800;4.904;2024-03-02T07:49:30;7.30;99.90
11840;DHT22;5979;50.800;4.904;2024-03-02T07:51:55;7.40;99.90
11840;DHT22;5979;50.800;4.904;2024-03-02T07:54:21;7.50;99.90
11840;DHT22;5979;50.800;4.904;2024-03-02T07:56:47;7.50;99.90
11840;DHT22;5979;50.800;4.904;2024-03-02T07:59:13;7.50;99.90
11840;DHT22;5979;50.800;4.904;2024-03-02T08:01:38;7.60;99.90
11840;DHT22;5979;50.800;4.904;2024-03-02T08:04:04;7.50;99.90
11840;DHT22;5979;50.800;4.904;2024-03-02T08:06:30;7.60;99.90
11840;DHT22;5979;50.800;4.904;2024-03-02T08:09:00;7.60;99.90
11840;DHT22;5979;50.800;4.904;2024-03-02T08:11:26;7.80;99.90
11840;DHT22;5979;50.800;4.904;2024-03-02T08:13:56;7.90;99.90
11840;DHT22;5979;50.800;4.904;2024-03-02T08:16:25;8.10;99.90
11840;DHT22;5979;50.800;4.904;2024-03-02T08:18:51;8.30;99.90
11840;DHT22;5979;50.800;4.904;2024-03-02T08:21:17;8.50;99.90
11840;DHT22;5979;50.800;4.904;2024-03-02T08:23:43;8.60;99.90
11840;DHT22;5979;50.800;4.904;2024-03-02T08:26:09;8.70;99.90
11840;DHT22;5979;50.800;4.904;2024-03-02T08:28:35;8.80;99.90
11840;DHT22;5979;50.800;4.904;2024-03-02T08:31:03;9.00;99.90
11840;DHT22;5979;50.800;4.904;2024-03-02T08:33:28;9.10;99.90
11840;DHT22;5979;50.800;4.904;2024-03-02T08:35:54;9.20;99.90
11840;DHT22;5979;50.800;4.904;2024-03-02T08:38:20;9.40;99.90
11840;DHT22;5979;50.800;4.904;2024-03-02T08:40:46;9.60;99.90
11840;DHT22;5979;50.800;4.904;2024-03-02T08:43:12;9.60;99.90
11840;DHT22;5979;50.800;4.904;2024-03-02T08:45:38;9.70;99.90
11840;DHT22;5979;50.800;4.904;2024-03-02T08:48:06;9.70;99.90
11840;DHT22;5979;50.800;4.904;2024-03-02T08:50:33;9.70;99.90
11840;DHT22;5979;50.800;4.904;2024-03-02T08:52:59;9.80;99.90
11840;DHT22;5979;50.800;4.904;2024-03-02T08:55:25;9.90;99.90
11840;DHT22;5979;50.800;4.904;2024-03-02T08:57:50;10.00;99.90
11840;DHT22;5979;50.800;4.904;2024-03-02T09:00:16;10.00;99.90
11840;DHT22;5979;50.800;4.904;2024-03-02T09:02:44;10.20;99.90
11840;DHT22;5979;50.800;4.904;2024-03-02T09:05:10;10.40;99.90
11840;DHT22;5979;50.800;4.904;2024-03-02T09:07:36;10.50;99.90
11840;DHT22;5979;50.800;4.904;2024-03-02T09:10:01;10.60;99.90
11840;DHT22;5979;50.800;4.904;2024-03-02T09:12:27;10.60;99.90
11840;DHT22;5979;50.800;4.904;2024-03-02T09:14:53;10.70;99.90
11840;DHT22;5979;50.800;4.904;2024-03-02T09:17:18;10.90;99.90
11840;DHT22;5979;50.800;4.904;2024-03-02T09:19:44;11.00;99.90
11840;DHT22;5979;50.800;4.904;2024-03-02T09:22:09;11.10;99.90
11840;DHT22;5979;50.800;4.904;2024-03-02T09:24:35;11.10;99.90
11840;DHT22;5979;50.800;4.904;2024-03-02T09:27:01;11.00;99.90
11840;DHT22;5979;50.800;4.904;2024-03-02T09:29:26;10.80;99.90
11840;DHT22;5979;50.800;4.904;2024-03-02T09:31:52;10.70;99.90
11840;DHT22;5979;50.800;4.904;2024-03-02T09:34:18;10.70;99.90
11840;DHT22;5979;50.800;4.904;2024-03-02T09:36:43;10.70;99.90
11840;DHT22;5979;50.800;4.904;2024-03-02T09:39:09;10.70;99.90
11840;DHT22;5979;50.800;4.904;2024-03-02T09:41:38;10.70;99.90
11840;DHT22;5979;50.800;4.904;2024-03-02T09:44:07;10.70;99.90
11840;DHT22;5979;50.800;4.904;2024-03-02T09:46:33;10.80;99.90
11840;DHT22;5979;50.800;4.904;2024-03-02T09:49:01;10.90;99.90
11840;DHT22;5979;50.800;4.904;2024-03-02T09:51:26;11.00;99.90
11840;DHT22;5979;50.800;4.904;2024-03-02T09:53:52;11.10;99.90
11840;DHT22;5979;50.800;4.904;2024-03-02T09:56:19;11.20;99.90
11840;DHT22;5979;50.800;4.904;2024-03-02T09:58:46;11.20;99.90
11840;DHT22;5979;50.800;4.904;2024-03-02T10:01:11;11.40;99.90
11840;DHT22;5979;50.800;4.904;2024-03-02T10:03:37;11.40;99.90
11840;DHT22;5979;50.800;4.904;2024-03-02T10:06:22;11.50;99.90
11840;DHT22;5979;50.800;4.904;2024-03-02T10:08:49;11.50;99.90
11840;DHT22;5979;50.800;4.904;2024-03-02T10:11:31;11.40;99.90
11840;DHT22;5979;50.800;4.904;2024-03-02T10:14:09;11.30;99.90
11840;DHT22;5979;50.800;4.904;2024-03-02T10:16:45;11.40;99.90
11840;DHT22;5979;50.800;4.904;2024-03-02T10:21:48;11.60;99.90
11840;DHT22;5979;50.800;4.904;2024-03-02T10:24:15;11.70;99.90
11840;DHT22;5979;50.800;4.904;2024-03-02T10:26:41;11.70;99.90
11840;DHT22;5979;50.800;4.904;2024-03-02T10:29:08;11.60;99.90
11840;DHT22;5979;50.800;4.904;2024-03-02T10:31:40;11.70;99.90
11840;DHT22;5979;50.800;4.904;2024-03-02T10:34:09;11.80;99.90
11840;DHT22;5979;50.800;4.904;2024-03-02T10:36:36;11.90;99.90
11840;DHT22;5979;50.800;4.904;2024-03-02T10:39:05;12.00;99.90
11840;DHT22;5979;50.800;4.904;2024-03-02T10:41:36;12.10;99.90
11840;DHT22;5979;50.800;4.904;2024-03-02T10:44:03;12.20;99.90
11840;DHT22;5979;50.800;4.904;2024-03-02T10:46:30;12.30;99.90
11840;DHT22;5979;50.800;4.904;2024-03-02T10:48:57;12.30;99.90
11840;DHT22;5979;50.800;4.904;2024-03-02T10:51:28;12.30;99.90
11840;DHT22;5979;50.800;4.904;2024-03-02T10:53:57;12.40;99.90
11840;DHT22;5979;50.800;4.904;2024-03-02T10:56:40;12.40;99.90
11840;DHT22;5979;50.800;4.904;2024-03-02T11:01:58;12.50;99.90
11840;DHT22;5979;50.800;4.904;2024-03-02T11:04:25;12.40;99.90
11840;DHT22;5979;50.800;4.904;2024-03-02T11:06:54;12.50;99.90
11840;DHT22;5979;50.800;4.904;2024-03-02T11:09:26;12.60;99.90
11840;DHT22;5979;50.800;4.904;2024-03-02T11:12:19;12.60;99.90
11840;DHT22;5979;50.800;4.904;2024-03-02T11:14:44;12.70;99.90
11840;DHT22;5979;50.800;4.904;2024-03-02T11:17:12;12.70;99.90
11840;DHT22;5979;50.800;4.904;2024-03-02T11:19:41;12.70;99.90
11840;DHT22;5979;50.800;4.904;2024-03-02T11:22:08;12.60;99.90
11840;DHT22;5979;50.800;4.904;2024-03-02T11:24:34;12.60;99.90
11840;DHT22;5979;50.800;4.904;2024-03-02T11:27:03;12.50;99.90
11840;DHT22;5979;50.800;4.904;2024-03-02T11:32:22;12.50;99.90
11840;DHT22;5979;50.800;4.904;2024-03-02T11:34:50;12.50;99.90
11840;DHT22;5979;50.800;4.904;2024-03-02T11:37:17;12.50;99.90
11840;DHT22;5979;50.800;4.904;2024-03-02T11:39:44;12.60;99.90
11840;DHT22;5979;50.800;4.904;2024-03-02T11:42:11;12.70;99.90
11840;DHT22;5979;50.800;4.904;2024-03-02T11:44:40;12.70;99.90
11840;DHT22;5979;50.800;4.904;2024-03-02T11:47:08;12.70;99.90
11840;DHT22;5979;50.800;4.904;2024-03-02T11:49:40;12.70;99.90
11840;DHT22;5979;50.800;4.904;2024-03-02T11:52:08;12.80;99.90
11840;DHT22;5979;50.800;4.904;2024-03-02T11:54:36;12.90;99.90
11840;DHT22;5979;50.800;4.904;2024-03-02T11:57:02;13.00;99.90
11840;DHT22;5979;50.800;4.904;2024-03-02T11:59:31;13.00;99.90
11840;DHT22;5979;50.800;4.904;2024-03-02T12:01:58;13.10;99.90
11840;DHT22;5979;50.800;4.904;2024-03-02T12:04:25;13.00;99.90
11840;DHT22;5979;50.800;4.904;2024-03-02T12:06:59;13.10;99.90
11840;DHT22;5979;50.800;4.904;2024-03-02T12:09:28;13.10;99.90
11840;DHT22;5979;50.800;4.904;2024-03-02T12:12:08;13.10;99.90
11840;DHT22;5979;50.800;4.904;2024-03-02T12:14:38;13.10;99.90
11840;DHT22;5979;50.800;4.904;2024-03-02T12:17:05;13.10;99.90
11840;DHT22;5979;50.800;4.904;2024-03-02T12:19:32;13.10;99.90
11840;DHT22;5979;50.800;4.904;2024-03-02T12:21:58;13.10;99.90
11840;DHT22;5979;50.800;4.904;2024-03-02T12:24:26;13.10;99.90
11840;DHT22;5979;50.800;4.904;2024-03-02T12:26:51;13.10;99.90
11840;DHT22;5979;50.800;4.904;2024-03-02T12:29:19;13.10;99.90
11840;DHT22;5979;50.800;4.904;2024-03-02T12:31:51;13.10;99.90
11840;DHT22;5979;50.800;4.904;2024-03-02T12:34:21;13.10;99.90
11840;DHT22;5979;50.800;4.904;2024-03-02T12:36:47;13.10;99.90
11840;DHT22;5979;50.800;4.904;2024-03-02T12:39:16;13.10;99.90
11840;DHT22;5979;50.800;4.904;2024-03-02T12:41:42;13.10;99.90
11840;DHT22;5979;50.800;4.904;2024-03-02T12:44:08;13.10;99.90
11840;DHT22;5979;50.800;4.904;2024-03-02T12:46:34;13.10;99.90
11840;DHT22;5979;50.800;4.904;2024-03-02T12:49:11;13.10;99.90
11840;DHT22;5979;50.800;4.904;2024-03-02T12:51:41;13.00;99.90
11840;DHT22;5979;50.800;4.904;2024-03-02T12:54:08;13.00;99.90
11840;DHT22;5979;50.800;4.904;2024-03-02T12:56:35;13.00;99.90
11840;DHT22;5979;50.800;4.904;2024-03-02T12:59:01;13.00;99.90
11840;DHT22;5979;50.800;4.904;2024-03-02T13:01:27;13.00;99.90
11840;DHT22;5979;50.800;4.904;2024-03-02T13:03:53;13.00;99.90
11840;DHT22;5979;50.800;4.904;2024-03-02T13:06:21;13.00;99.90
11840;DHT22;5979;50.800;4.904;2024-03-02T13:08:46;13.10;99.90
11840;DHT22;5979;50.800;4.904;2024-03-02T13:11:13;13.00;99.90
11840;DHT22;5979;50.800;4.904;2024-03-02T13:13:40;13.10;99.90
11840;DHT22;5979;50.800;4.904;2024-03-02T13:16:14;13.00;99.90
11840;DHT22;5979;50.800;4.904;2024-03-02T13:18:41;13.10;99.90
11840;DHT22;5979;50.800;4.904;2024-03-02T13:21:08;13.20;99.90
11840;DHT22;5979;50.800;4.904;2024-03-02T13:23:34;13.20;99.90
11840;DHT22;5979;50.800;4.904;2024-03-02T13:26:00;13.20;99.90
11840;DHT22;5979;50.800;4.904;2024-03-02T13:28:26;13.10;99.90
11840;DHT22;5979;50.800;4.904;2024-03-02T13:30:52;13.10;99.90
11840;DHT22;5979;50.800;4.904;2024-03-02T13:33:18;13.10;99.90
11840;DHT22;5979;50.800;4.904;2024-03-02T13:35:50;13.20;99.90
11840;DHT22;5979;50.800;4.904;2024-03-02T13:38:20;13.40;99.90
11840;DHT22;5979;50.800;4.904;2024-03-02T13:40:46;13.40;99.90
11840;DHT22;5979;50.800;4.904;2024-03-02T13:43:17;13.40;99.90
11840;DHT22;5979;50.800;4.904;2024-03-02T13:45:43;13.50;99.90
11840;DHT22;5979;50.800;4.904;2024-03-02T13:48:09;13.50;99.90
11840;DHT22;5979;50.800;4.904;2024-03-02T13:50:35;13.60;99.90
11840;DHT22;5979;50.800;4.904;2024-03-02T13:53:00;13.70;99.90
11840;DHT22;5979;50.800;4.904;2024-03-02T13:55:26;13.70;99.90
11840;DHT22;5979;50.800;4.904;2024-03-02T13:57:52;13.60;99.90
11840;DHT22;5979;50.800;4.904;2024-03-02T14:00:18;13.60;99.90
11840;DHT22;5979;50.800;4.904;2024-03-02T14:02:45;13.50;99.90
11840;DHT22;5979;50.800;4.904;2024-03-02T14:05:11;13.40;99.90
11840;DHT22;5979;50.800;4.904;2024-03-02T14:07:38;13.40;99.90
11840;DHT22;5979;50.800;4.904;2024-03-02T14:10:04;13.30;99.90
11840;DHT22;5979;50.800;4.904;2024-03-02T14:12:30;13.30;99.90
11840;DHT22;5979;50.800;4.904;2024-03-02T14:14:56;13.30;99.90
11840;DHT22;5979;50.800;4.904;2024-03-02T14:17:26;13.20;99.90
11840;DHT22;5979;50.800;4.904;2024-03-02T14:19:52;13.20;99.90
11840;DHT22;5979;50.800;4.904;2024-03-02T14:22:19;13.20;99.90
11840;DHT22;5979;50.800;4.904;2024-03-02T14:24:45;13.20;99.90
11840;DHT22;5979;50.800;4.904;2024-03-02T14:27:11;13.20;99.90
11840;DHT22;5979;50.800;4.904;2024-03-02T14:29:38;13.20;99.90
11840;DHT22;5979;50.800;4.904;2024-03-02T14:32:05;13.20;99.90
11840;DHT22;5979;50.800;4.904;2024-03-02T14:34:31;13.20;99.90
11840;DHT22;5979;50.800;4.904;2024-03-02T14:36:57;13.00;99.90
11840;DHT22;5979;50.800;4.904;2024-03-02T14:39:22;13.00;99.90
11840;DHT22;5979;50.800;4.904;2024-03-02T14:41:48;12.90;99.90
11840;DHT22;5979;50.800;4.904;2024-03-02T14:44:14;12.90;99.90
11840;DHT22;5979;50.800;4.904;2024-03-02T14:46:41;12.90;99.90
11840;DHT22;5979;50.800;4.904;2024-03-02T14:49:07;12.80;99.90
11840;DHT22;5979;50.800;4.904;2024-03-02T14:51:33;12.80;99.90
11840;DHT22;5979;50.800;4.904;2024-03-02T14:53:58;12.80;99.90
11840;DHT22;5979;50.800;4.904;2024-03-02T14:56:24;12.80;99.90
11840;DHT22;5979;50.800;4.904;2024-03-02T14:58:50;12.80;99.90
11840;DHT22;5979;50.800;4.904;2024-03-02T15:01:16;12.80;99.90
11840;DHT22;5979;50.800;4.904;2024-03-02T15:03:43;12.80;99.90
11840;DHT22;5979;50.800;4.904;2024-03-02T15:06:09;12.80;99.90
11840;DHT22;5979;50.800;4.904;2024-03-02T15:08:35;12.90;99.90
11840;DHT22;5979;50.800;4.904;2024-03-02T15:11:01;12.90;99.90
11840;DHT22;5979;50.800;4.904;2024-03-02T15:13:29;12.90;99.90
11840;DHT22;5979;50.800;4.904;2024-03-02T15:15:54;12.90;99.90
11840;DHT22;5979;50.800;4.904;2024-03-02T15:18:20;12.90;99.90
11840;DHT22;5979;50.800;4.904;2024-03-02T15:20:46;13.00;99.90
11840;DHT22;5979;50.800;4.904;2024-03-02T15:23:11;13.00;99.90
11840;DHT22;5979;50.800;4.904;2024-03-02T15:25:37;13.00;99.90
11840;DHT22;5979;50.800;4.904;2024-03-02T15:28:03;12.90;99.90
11840;DHT22;5979;50.800;4.904;2024-03-02T15:30:29;13.00;99.90
11840;DHT22;5979;50.800;4.904;2024-03-02T15:32:54;13.00;99.90
11840;DHT22;5979;50.800;4.904;2024-03-02T15:35:20;13.00;99.90
11840;DHT22;5979;50.800;4.904;2024-03-02T15:37:45;13.00;99.90
11840;DHT22;5979;50.800;4.904;2024-03-02T15:40:11;12.90;99.90
11840;DHT22;5979;50.800;4.904;2024-03-02T15:42:36;12.80;99.90
11840;DHT22;5979;50.800;4.904;2024-03-02T15:45:02;12.60;99.90
11840;DHT22;5979;50.800;4.904;2024-03-02T15:47:28;12.50;99.90
11840;DHT22;5979;50.800;4.904;2024-03-02T15:49:54;12.40;99.90
11840;DHT22;5979;50.800;4.904;2024-03-02T15:52:20;12.40;99.90
11840;DHT22;5979;50.800;4.904;2024-03-02T15:54:50;12.30;99.90
11840;DHT22;5979;50.800;4.904;2024-03-02T15:57:16;12.30;99.90
11840;DHT22;5979;50.800;4.904;2024-03-02T15:59:43;12.20;99.90
11840;DHT22;5979;50.800;4.904;2024-03-02T16:02:08;12.20;99.90
11840;DHT22;5979;50.800;4.904;2024-03-02T16:04:34;12.20;99.90